Time;durP1;ratioP1;P1;durP2;ratioP2;P2;SDS_P1;SDS_P2;PMS_P1;PMS_P2;Temp;Humidity;BMP_temperature;BMP_pressure;BME280_temperature;BME280_humidity;BME280_pressure;Samples;Min_cycle;Max_cycle;Signal;HPM_P1;HPM_P2
2021/01/08 00:00:46;;;;;;;3.50;2.08;;;;;;;2.10;99.25;101112.28;5061584;28;20059;-65
2021/01/08 00:03:12;;;;;;;3.30;1.80;;;;;;;2.16;99.19;101112.94;5062505;28;20056;-64
2021/01/08 00:05:38;;;;;;;1.98;1.55;;;;;;;2.22;99.39;101115.25;5062167;28;20048;-64
2021/01/08 00:08:05;;;;;;;3.38;1.52;;;;;;;2.22;99.18;101110.84;5063178;28;20131;-64
2021/01/08 00:10:31;;;;;;;2.85;1.88;;;;;;;2.18;99.05;101106.59;5060577;28;20044;-64
2021/01/08 00:12:57;;;;;;;4.40;2.05;;;;;;;2.14;99.82;101117.47;5060987;28;20107;-64
2021/01/08 00:15:24;;;;;;;3.03;1.83;;;;;;;2.07;99.47;101101.81;5060894;28;20053;-64
2021/01/08 00:17:50;;;;;;;3.42;1.40;;;;;;;2.07;99.74;101109.78;5061197;28;20048;-64
2021/01/08 00:20:16;;;;;;;2.10;1.52;;;;;;;2.20;99.80;101111.84;5062694;28;20060;-64
2021/01/08 00:22:42;;;;;;;5.00;1.60;;;;;;;2.12;99.38;101109.56;5060002;28;20045;-64
2021/01/08 00:25:10;;;;;;;2.17;1.63;;;;;;;2.14;99.39;101114.81;5062393;28;20106;-64
2021/01/08 00:27:37;;;;;;;3.40;1.50;;;;;;;2.06;99.39;101108.06;5061316;28;20068;-63
2021/01/08 00:30:04;;;;;;;2.42;1.30;;;;;;;2.09;99.54;101099.97;5062912;28;20056;-64
2021/01/08 00:32:30;;;;;;;2.40;1.55;;;;;;;2.14;99.20;101112.16;5061217;28;20095;-64
2021/01/08 00:34:57;;;;;;;2.65;1.30;;;;;;;2.19;98.89;101107.47;5059949;28;20452;-63
2021/01/08 00:37:24;;;;;;;2.50;1.58;;;;;;;2.13;99.42;101110.41;5060423;28;20096;-64
2021/01/08 00:39:49;;;;;;;2.80;1.50;;;;;;;2.07;99.47;101112.44;5061193;28;20079;-64
2021/01/08 00:42:15;;;;;;;3.17;1.80;;;;;;;2.07;99.87;101108.91;5060637;28;20056;-64
2021/01/08 00:44:42;;;;;;;2.50;1.50;;;;;;;2.13;99.60;101110.41;5062263;28;20563;-64
2021/01/08 00:47:08;;;;;;;2.03;1.33;;;;;;;2.14;99.22;101106.84;5060569;28;20379;-64
2021/01/08 00:49:34;;;;;;;2.45;1.50;;;;;;;2.18;99.62;101119.88;5059697;28;20053;-64
2021/01/08 00:52:01;;;;;;;2.50;1.52;;;;;;;2.06;99.88;101116.03;5061273;28;20420;-64
2021/01/08 00:54:27;;;;;;;2.28;1.40;;;;;;;2.12;99.26;101111.34;5060509;28;20040;-63
2021/01/08 00:59:20;;;;;;;3.22;1.33;;;;;;;2.14;99.40;101114.81;4994270;22;20052;-64
2021/01/08 01:01:46;;;;;;;2.60;1.60;;;;;;;2.07;99.28;101112.44;5060795;28;20476;-64
2021/01/08 01:04:12;;;;;;;2.25;1.60;;;;;;;2.15;99.26;101112.06;5060918;28;20060;-64
2021/01/08 01:06:40;;;;;;;2.88;1.90;;;;;;;2.12;99.30;101111.34;5062217;28;20115;-64
2021/01/08 01:09:07;;;;;;;3.33;2.55;;;;;;;2.17;99.92;101117.31;5061513;28;20497;-64
2021/01/08 01:11:36;;;;;;;3.95;1.95;;;;;;;2.22;100.00;101121.47;5063320;28;20408;-64
2021/01/08 01:14:02;;;;;;;3.97;2.53;;;;;;;2.12;99.55;101119.31;5061488;28;20052;-64
2021/01/08 01:16:28;;;;;;;3.45;2.20;;;;;;;2.19;99.98;101112.78;5060199;28;20115;-65
2021/01/08 01:18:56;;;;;;;5.15;2.28;;;;;;;2.19;99.60;101116.28;5060800;28;20053;-63
2021/01/08 01:21:23;;;;;;;3.05;2.03;;;;;;;2.18;99.34;101114.56;5062143;28;20041;-63
2021/01/08 01:23:49;;;;;;;3.60;1.90;;;;;;;2.23;99.68;101117.00;5060020;28;20387;-62
2021/01/08 01:26:16;;;;;;;3.78;2.30;;;;;;;2.16;99.54;101115.56;5061487;28;21469;-63
2021/01/08 01:28:43;;;;;;;2.50;1.77;;;;;;;2.14;99.09;101122.78;5062397;28;20044;-62
2021/01/08 01:31:09;;;;;;;3.05;2.10;;;;;;;2.13;99.83;101126.34;5058435;28;20413;-63
2021/01/08 01:33:36;;;;;;;4.28;1.73;;;;;;;2.11;99.35;101118.47;5062114;28;20048;-63
2021/01/08 01:36:05;;;;;;;3.60;1.90;;;;;;;2.08;99.70;101130.09;5062743;28;20383;-63
2021/01/08 01:38:31;;;;;;;3.45;1.50;;;;;;;2.04;99.37;101128.50;5062419;28;20064;-62
2021/01/08 01:40:57;;;;;;;4.53;1.95;;;;;;;2.06;99.04;101131.97;5059053;28;20132;-63
2021/01/08 01:43:24;;;;;;;3.65;2.20;;;;;;;2.06;99.67;101131.97;5060488;28;20048;-62
2021/01/08 01:45:50;;;;;;;2.63;1.83;;;;;;;2.11;99.13;101139.72;5059489;28;20049;-62
2021/01/08 01:48:16;;;;;;;3.03;2.00;;;;;;;2.07;99.22;101144.28;5060375;28;20076;-62
2021/01/08 01:50:42;;;;;;;2.90;1.77;;;;;;;2.09;99.09;101133.59;5060654;28;20105;-63
2021/01/08 01:53:09;;;;;;;4.15;1.85;;;;;;;2.14;99.34;101138.72;5059633;28;20044;-62
2021/01/08 01:55:35;;;;;;;3.38;2.00;;;;;;;2.08;99.31;101148.66;5060630;28;20113;-63
2021/01/08 01:58:01;;;;;;;3.92;2.08;;;;;;;2.19;99.05;101144.63;5060815;28;20062;-63
2021/01/08 02:00:28;;;;;;;4.43;2.03;;;;;;;2.16;98.63;101150.09;5059232;28;20053;-63
2021/01/08 02:02:57;;;;;;;4.22;1.88;;;;;;;2.23;99.11;101154.19;5060930;28;20099;-62
2021/01/08 02:05:24;;;;;;;4.80;1.80;;;;;;;2.19;99.31;101152.59;5060463;28;20529;-63
2021/01/08 02:07:53;;;;;;;2.70;2.10;;;;;;;2.10;99.33;101151.25;5060343;28;20060;-62
2021/01/08 02:10:21;;;;;;;4.13;2.15;;;;;;;2.05;99.45;101161.25;5056206;28;21654;-63
2021/01/08 02:12:48;;;;;;;3.80;2.63;;;;;;;2.12;99.49;101162.69;5060740;28;20059;-62
2021/01/08 02:15:14;;;;;;;3.80;2.60;;;;;;;2.07;99.53;101162.88;5058285;28;20106;-63
2021/01/08 02:17:42;;;;;;;3.35;2.47;;;;;;;2.04;98.85;101159.53;5058167;28;20051;-62
2021/01/08 02:20:10;;;;;;;3.40;2.63;;;;;;;2.07;98.68;101165.53;5058073;28;20045;-63
2021/01/08 02:22:43;;;;;;;4.43;2.90;;;;;;;2.02;98.70;101162.25;5059383;28;20044;-63
2021/01/08 02:25:13;;;;;;;6.43;3.42;;;;;;;2.02;99.40;101167.56;5058102;28;20067;-63
2021/01/08 02:27:42;;;;;;;5.18;3.10;;;;;;;2.15;98.98;101166.97;5058763;28;20044;-63
2021/01/08 02:33:04;;;;;;;4.28;2.85;;;;;;;2.23;99.69;101170.13;5044342;23;20079;-62
2021/01/08 02:35:31;;;;;;;6.10;3.55;;;;;;;2.16;99.05;101174.00;5038723;28;20144;-63
2021/01/08 02:37:58;;;;;;;5.80;3.38;;;;;;;2.14;99.15;101168.75;5040168;28;20094;-63
2021/01/08 02:40:25;;;;;;;3.80;2.90;;;;;;;2.12;98.91;101169.75;5039664;28;20097;-63
2021/01/08 02:42:57;;;;;;;6.07;2.92;;;;;;;2.16;98.87;101169.53;5040110;28;20053;-63
2021/01/08 02:45:23;;;;;;;8.38;3.72;;;;;;;2.06;98.92;101171.78;5040060;28;20055;-63
2021/01/08 02:47:49;;;;;;;5.53;3.45;;;;;;;2.17;99.72;101175.72;5036419;28;20053;-63
2021/01/08 02:50:16;;;;;;;5.75;4.22;;;;;;;2.14;99.45;101166.09;5037649;28;20056;-62
2021/01/08 02:52:45;;;;;;;7.43;4.20;;;;;;;2.11;99.33;101166.25;5039180;28;20041;-63
2021/01/08 02:55:13;;;;;;;4.95;3.70;;;;;;;2.15;98.85;101177.56;5037274;28;20057;-62
2021/01/08 02:57:42;;;;;;;6.35;3.88;;;;;;;2.14;99.08;101174.06;5043237;28;20049;-63
2021/01/08 03:00:09;;;;;;;6.85;3.67;;;;;;;2.19;99.48;101179.16;5045218;28;20045;-63
2021/01/08 03:02:36;;;;;;;5.78;3.67;;;;;;;2.20;99.85;101170.25;5046026;28;20057;-63
2021/01/08 03:05:03;;;;;;;4.20;3.38;;;;;;;2.23;98.90;101178.09;5044484;28;20520;-62
2021/01/08 03:07:29;;;;;;;6.90;3.55;;;;;;;2.15;99.51;101177.56;5047278;28;20450;-62
2021/01/08 03:09:55;;;;;;;6.28;3.60;;;;;;;2.14;99.66;101173.22;5046329;28;20045;-62
2021/01/08 03:12:21;;;;;;;4.68;3.60;;;;;;;2.16;99.25;101174.00;5046185;28;20049;-62
2021/01/08 03:14:48;;;;;;;5.97;3.50;;;;;;;2.18;99.62;101166.81;5043820;28;20053;-63
2021/01/08 03:17:14;;;;;;;4.72;3.13;;;;;;;2.22;99.10;101173.69;5045840;28;20941;-63
2021/01/08 03:19:40;;;;;;;4.30;3.15;;;;;;;2.25;99.40;101173.53;5046888;28;20107;-62
2021/01/08 03:22:07;;;;;;;5.70;3.63;;;;;;;2.09;98.84;101170.75;5048714;28;20056;-62
2021/01/08 03:24:33;;;;;;;5.60;3.60;;;;;;;2.10;99.72;101177.81;5043655;28;20091;-62
2021/01/08 03:26:59;;;;;;;4.88;3.40;;;;;;;2.09;98.90;101173.41;5044266;28;20049;-63
2021/01/08 03:29:25;;;;;;;6.18;3.50;;;;;;;2.09;98.84;101171.66;5047295;28;20552;-63
2021/01/08 03:31:52;;;;;;;7.70;3.90;;;;;;;2.09;98.73;101169.00;5046121;28;20053;-63
2021/01/08 03:34:18;;;;;;;5.72;4.10;;;;;;;2.08;99.56;101177.88;5044535;28;20061;-63
2021/01/08 03:36:43;;;;;;;7.03;3.97;;;;;;;2.12;99.04;101175.97;5042949;28;20501;-63
2021/01/08 03:39:09;;;;;;;7.40;4.18;;;;;;;2.11;99.76;101171.56;5044698;28;20053;-62
2021/01/08 03:41:36;;;;;;;7.07;3.97;;;;;;;2.03;99.67;101171.94;5045082;28;20079;-63
2021/01/08 03:44:02;;;;;;;6.47;4.32;;;;;;;2.10;99.76;101170.69;5043750;28;20103;-63
2021/01/08 03:46:28;;;;;;;5.85;4.43;;;;;;;2.11;98.89;101171.56;5044378;28;20053;-63
2021/01/08 03:48:55;;;;;;;5.32;4.03;;;;;;;2.22;99.60;101174.56;5044321;28;20159;-63
2021/01/08 03:51:21;;;;;;;6.13;3.83;;;;;;;2.22;99.29;101184.31;5042478;28;20057;-62
2021/01/08 03:53:47;;;;;;;5.13;3.63;;;;;;;2.16;99.67;101179.31;5040722;28;20099;-63
2021/01/08 03:56:13;;;;;;;6.15;3.70;;;;;;;2.19;99.72;101179.16;5043297;28;20053;-63
2021/01/08 03:58:39;;;;;;;5.43;3.80;;;;;;;2.18;99.11;101177.44;5045717;28;20052;-63
2021/01/08 04:01:12;;;;;;;5.88;3.17;;;;;;;2.15;99.03;101182.88;5057388;23;20064;-63
2021/01/08 04:03:38;;;;;;;8.38;4.00;;;;;;;2.06;99.06;101187.72;5019843;28;20041;-63
2021/01/08 04:06:05;;;;;;;5.32;3.65;;;;;;;2.04;99.78;101189.56;5024896;28;20510;-63
2021/01/08 04:08:31;;;;;;;5.43;3.42;;;;;;;2.15;99.87;101183.78;5024399;28;20077;-63
2021/01/08 04:10:56;;;;;;;5.28;3.53;;;;;;;2.13;98.92;101190.94;5022513;28;20049;-63
2021/01/08 04:13:23;;;;;;;4.80;3.33;;;;;;;2.12;99.51;101177.72;5021521;28;20096;-63
2021/01/08 04:15:49;;;;;;;5.13;3.40;;;;;;;1.99;99.62;101183.63;5022852;28;20046;-62
2021/01/08 04:18:15;;;;;;;5.50;4.07;;;;;;;2.07;99.12;101186.78;5019253;28;20042;-62
2021/01/08 04:20:41;;;;;;;4.53;3.20;;;;;;;2.02;99.19;101179.97;5022621;28;20041;-63
2021/01/08 04:23:08;;;;;;;5.30;3.60;;;;;;;2.02;99.83;101178.19;5021173;28;20052;-62
2021/01/08 04:25:34;;;;;;;5.47;3.58;;;;;;;2.00;99.59;101177.38;5021783;28;20501;-62
2021/01/08 04:28:00;;;;;;;8.02;3.45;;;;;;;2.07;99.61;101176.16;5023128;28;20050;-62
2021/01/08 04:30:26;;;;;;;5.28;3.80;;;;;;;2.05;100.00;101182.50;5021042;28;20070;-63
2021/01/08 04:32:51;;;;;;;5.20;3.83;;;;;;;2.06;99.99;101179.75;5020049;28;20525;-62
2021/01/08 04:35:18;;;;;;;6.18;3.58;;;;;;;2.19;99.70;101180.00;5019622;28;20045;-62
2021/01/08 04:37:44;;;;;;;4.85;3.55;;;;;;;2.13;99.23;101180.31;5022448;28;20069;-62
2021/01/08 04:40:12;;;;;;;9.50;4.13;;;;;;;2.16;99.69;101190.78;5022261;28;20046;-62
2021/01/08 04:42:38;;;;;;;6.07;3.85;;;;;;;2.14;99.33;101186.50;5022043;28;20111;-62
2021/01/08 04:45:06;;;;;;;10.32;4.10;;;;;;;2.21;99.67;101188.78;5021931;28;20053;-63
2021/01/08 04:47:33;;;;;;;7.72;4.65;;;;;;;2.19;99.47;101185.31;5021898;28;20504;-63
2021/01/08 04:49:59;;;;;;;8.25;4.78;;;;;;;2.21;99.62;101185.25;5022776;28;20053;-63
2021/01/08 04:52:27;;;;;;;8.57;4.60;;;;;;;2.16;99.67;101195.25;5020898;28;20046;-63
2021/01/08 04:54:53;;;;;;;6.30;4.40;;;;;;;2.15;99.28;101182.88;5020239;28;20053;-62
2021/01/08 04:57:22;;;;;;;8.63;4.45;;;;;;;2.19;99.24;101195.09;5021121;28;20449;-62
2021/01/08 04:59:49;;;;;;;7.07;4.63;;;;;;;2.08;99.12;101196.47;5021498;28;20096;-63
2021/01/08 05:02:15;;;;;;;8.30;4.88;;;;;;;2.04;100.00;101191.38;5018536;28;20054;-63
2021/01/08 05:04:42;;;;;;;7.10;4.60;;;;;;;2.13;100.00;101195.41;5017968;28;20053;-62
2021/01/08 05:07:08;;;;;;;7.78;5.18;;;;;;;2.14;100.00;101197.13;5020968;28;20049;-63
2021/01/08 05:09:34;;;;;;;8.40;5.00;;;;;;;2.12;99.69;101204.28;5019886;28;20062;-62
2021/01/08 05:12:01;;;;;;;9.82;5.22;;;;;;;2.15;99.94;101199.69;5023340;28;20053;-63
2021/01/08 05:14:27;;;;;;;8.27;5.38;;;;;;;2.09;100.00;101203.50;5019977;28;20042;-63
2021/01/08 05:16:55;;;;;;;7.03;4.78;;;;;;;2.13;100.00;101208.66;5023040;28;20550;-63
2021/01/08 05:19:23;;;;;;;8.90;5.22;;;;;;;2.06;99.73;101211.63;5018139;28;20100;-62
2021/01/08 05:21:49;;;;;;;7.93;4.85;;;;;;;2.17;100.00;101204.94;5021207;28;20064;-63
2021/01/08 05:24:16;;;;;;;8.15;4.80;;;;;;;2.14;100.00;101213.06;5019801;28;20062;-62
2021/01/08 05:26:42;;;;;;;7.72;4.78;;;;;;;2.15;100.00;101212.97;5019784;28;20053;-63
2021/01/08 05:29:08;;;;;;;9.55;5.50;;;;;;;2.09;99.75;101216.78;5019247;28;20038;-63
2021/01/08 05:31:35;;;;;;;8.00;5.18;;;;;;;2.08;99.88;101219.50;5021393;28;20062;-63
2021/01/08 05:34:02;;;;;;;8.13;5.15;;;;;;;2.17;100.00;101215.56;5020078;28;20045;-63
2021/01/08 05:36:28;;;;;;;8.80;5.05;;;;;;;2.14;100.00;101221.03;5019041;28;20091;-62
2021/01/08 05:38:57;;;;;;;9.40;5.70;;;;;;;2.02;100.00;101218.00;5020281;28;20454;-63
2021/01/08 05:41:24;;;;;;;9.88;5.78;;;;;;;2.04;99.85;101221.44;5019504;28;20137;-63
2021/01/08 05:43:51;;;;;;;8.43;5.10;;;;;;;2.03;100.00;101219.72;5019665;28;20061;-63
2021/01/08 05:46:18;;;;;;;9.20;5.30;;;;;;;1.99;99.90;101223.47;5018912;28;20111;-63
2021/01/08 05:48:48;;;;;;;7.15;4.68;;;;;;;2.09;100.00;101223.88;5018762;28;20045;-63
2021/01/08 05:51:18;;;;;;;7.72;4.60;;;;;;;2.15;100.00;101225.38;5019099;28;20064;-63
2021/01/08 05:53:46;;;;;;;7.60;4.35;;;;;;;2.14;100.00;101231.66;5017936;28;20509;-63
2021/01/08 05:56:17;;;;;;;7.23;4.43;;;;;;;2.07;100.00;101231.91;5021562;28;21847;-63
2021/01/08 05:58:44;;;;;;;7.05;4.47;;;;;;;2.12;100.00;101236.16;5021300;28;20041;-63
2021/01/08 06:01:11;;;;;;;5.95;4.13;;;;;;;2.15;99.96;101236.00;5020793;28;20042;-63
2021/01/08 06:03:38;;;;;;;5.60;3.53;;;;;;;2.09;100.00;101240.69;5020337;28;20052;-63
2021/01/08 06:06:06;;;;;;;6.05;4.15;;;;;;;2.11;100.00;101240.59;5019741;28;20046;-63
2021/01/08 06:08:36;;;;;;;6.82;4.05;;;;;;;2.16;100.00;101245.69;5021526;28;20046;-63
2021/01/08 06:11:02;;;;;;;6.65;3.60;;;;;;;2.19;99.93;101248.19;5020854;28;20443;-62
2021/01/08 06:13:31;;;;;;;5.70;3.42;;;;;;;2.06;100.00;101248.78;5019037;28;20045;-63
2021/01/08 06:16:00;;;;;;;5.47;4.00;;;;;;;2.08;99.97;101257.53;5021358;28;20049;-63
2021/01/08 06:18:27;;;;;;;6.70;3.72;;;;;;;2.08;100.00;101257.53;5018922;28;20053;-63
2021/01/08 06:20:54;;;;;;;5.45;3.40;;;;;;;2.13;100.00;101265.28;5021169;28;20407;-63
2021/01/08 06:23:34;;;;;;;4.50;3.58;;;;;;;2.20;99.82;101258.75;5019770;28;20398;-63
2021/01/08 06:26:01;;;;;;;5.10;3.22;;;;;;;2.22;100.00;101259.56;5019039;28;20404;-63
2021/01/08 06:28:34;;;;;;;4.82;2.97;;;;;;;2.16;99.76;101269.59;5020191;28;20054;-62
2021/01/08 06:31:03;;;;;;;5.25;3.10;;;;;;;2.22;99.80;101267.53;5021200;28;20550;-63
2021/01/08 06:33:34;;;;;;;;;;;;;;;2.27;100.00;101267.31;5018812;28;20045;-62
2021/01/08 06:36:15;;;;;;;5.80;3.13;;;;;;;2.28;100.00;101264.56;5018113;28;19938;-63
2021/01/08 06:38:46;;;;;;;5.97;3.05;;;;;;;2.32;99.62;101275.91;5017995;28;20044;-63
2021/01/08 06:41:13;;;;;;;5.13;3.50;;;;;;;2.39;99.36;101274.69;5019858;28;20045;-63
2021/01/08 06:43:41;;;;;;;4.32;3.22;;;;;;;2.36;99.58;101279.28;5018565;28;20502;-63
2021/01/08 06:46:16;;;;;;;5.68;3.30;;;;;;;2.25;100.00;101275.34;5018556;28;20168;-62
2021/01/08 06:48:48;;;;;;;5.30;3.45;;;;;;;2.27;99.11;101280.59;5020584;28;20105;-63
2021/01/08 06:51:24;;;;;;;4.90;2.97;;;;;;;2.21;99.07;101278.19;5020056;28;20061;-62
2021/01/08 06:53:57;;;;;;;4.70;3.10;;;;;;;2.29;99.01;101286.69;5018769;28;20050;-63
2021/01/08 06:56:29;;;;;;;4.93;3.17;;;;;;;2.30;99.49;101293.72;5016902;28;20049;-63
2021/01/08 06:58:55;;;;;;;4.60;2.70;;;;;;;2.32;99.67;101291.84;5019663;28;20184;-66
2021/01/08 07:01:34;;;;;;;7.60;3.42;;;;;;;2.20;98.96;101297.75;5017885;28;20049;-63
2021/01/08 07:04:01;;;;;;;6.35;3.72;;;;;;;2.19;99.24;101296.84;5001225;28;20077;-63
2021/01/08 07:06:28;;;;;;;6.43;3.58;;;;;;;2.20;99.01;101287.97;4999267;28;20056;-62
2021/01/08 07:08:55;;;;;;;6.40;4.15;;;;;;;2.21;99.64;101294.13;5000146;28;20038;-63
2021/01/08 07:11:27;;;;;;;6.05;3.67;;;;;;;2.16;99.77;101306.78;4999380;28;20099;-62
2021/01/08 07:14:05;;;;;;;7.28;3.83;;;;;;;2.34;99.00;101302.38;4999618;28;20518;-63
2021/01/08 07:16:31;;;;;;;5.45;3.55;;;;;;;2.19;98.81;101310.13;5001330;28;20075;-63
2021/01/08 07:19:04;;;;;;;5.75;3.45;;;;;;;2.22;99.23;101306.47;5000973;28;20057;-62
2021/01/08 07:21:31;;;;;;;6.93;3.67;;;;;;;2.25;99.65;101311.66;4998968;28;20072;-63
2021/01/08 07:23:58;;;;;;;5.57;3.53;;;;;;;2.19;99.19;101306.63;5002649;28;20042;-63
2021/01/08 07:26:27;;;;;;;6.50;3.63;;;;;;;2.22;99.30;101320.66;4998244;28;20745;-63
2021/01/08 07:28:53;;;;;;;8.00;3.15;;;;;;;2.21;98.98;101321.56;4999001;28;20556;-63
2021/01/08 07:31:31;;;;;;;5.72;2.97;;;;;;;2.21;99.02;101326.88;4997768;28;20061;-63
2021/01/08 07:33:58;;;;;;;4.35;2.97;;;;;;;2.20;98.78;101329.59;4999126;28;20392;-63
2021/01/08 07:36:25;;;;;;;7.20;3.17;;;;;;;2.17;98.72;101330.59;4996749;28;20058;-63
2021/01/08 07:38:51;;;;;;;4.53;2.88;;;;;;;2.14;98.71;101337.88;5000443;28;20514;-63
2021/01/08 07:41:36;;;;;;;5.53;3.40;;;;;;;2.08;98.48;101334.53;4997785;28;20500;-63
2021/01/08 07:44:03;;;;;;;6.85;3.20;;;;;;;2.03;98.91;101339.22;4999569;28;20053;-63
2021/01/08 07:46:31;;;;;;;4.85;3.13;;;;;;;2.11;98.66;101344.16;5003190;28;20396;-63
2021/01/08 07:48:59;;;;;;;5.40;2.97;;;;;;;2.15;98.57;101353.72;5004179;28;20586;-62
2021/01/08 07:51:43;;;;;;;6.97;3.90;;;;;;;2.25;98.67;101356.81;5003866;28;20062;-63
2021/01/08 07:54:09;;;;;;;5.55;3.40;;;;;;;2.26;99.02;101363.84;5001483;28;20065;-63
2021/01/08 07:56:36;;;;;;;6.72;3.28;;;;;;;2.15;98.54;101367.00;5002747;28;20057;-63
2021/01/08 07:59:04;;;;;;;5.25;3.38;;;;;;;2.26;98.12;101367.34;5003500;28;20042;-63
2021/01/08 08:01:31;;;;;;;4.97;3.45;;;;;;;2.25;98.23;101363.00;5005544;28;20059;-63
2021/01/08 08:03:58;;;;;;;5.30;3.35;;;;;;;2.16;98.42;101371.34;5021058;28;20530;-63
2021/01/08 08:06:26;;;;;;;4.55;3.35;;;;;;;2.16;98.35;101378.47;5021342;28;20566;-63
2021/01/08 08:08:54;;;;;;;6.07;3.85;;;;;;;2.16;98.26;101384.63;5022113;28;20050;-63
2021/01/08 08:11:25;;;;;;;5.03;3.25;;;;;;;2.09;98.55;101386.72;5023248;28;20057;-63
2021/01/08 08:13:52;;;;;;;4.78;2.90;;;;;;;2.13;98.05;101394.56;5021342;28;20498;-63
2021/01/08 08:16:18;;;;;;;5.95;3.92;;;;;;;2.14;98.36;101399.78;5021127;28;20130;-64
2021/01/08 08:18:50;;;;;;;7.97;3.80;;;;;;;2.11;98.05;101405.25;5020327;28;20495;-63
2021/01/08 08:21:16;;;;;;;4.97;3.05;;;;;;;2.14;97.59;101405.09;5021750;28;20502;-63
2021/01/08 08:26:12;;;;;;;8.13;3.60;;;;;;;2.04;97.65;101409.94;4978367;23;20203;-63
2021/01/08 08:28:37;;;;;;;7.63;3.65;;;;;;;2.04;98.08;101417.06;5022926;28;20099;-63
2021/01/08 08:31:05;;;;;;;7.20;3.92;;;;;;;1.98;97.64;101415.53;5019980;28;20078;-63
2021/01/08 08:33:31;;;;;;;8.40;5.03;;;;;;;2.07;98.17;101419.56;5021217;28;20061;-63
2021/01/08 08:35:56;;;;;;;5.53;3.22;;;;;;;2.14;98.00;101426.34;5021119;28;20211;-64
2021/01/08 08:41:14;;;;;;;7.78;3.20;;;;;;;2.04;97.98;101431.19;5049140;23;20498;-63
2021/01/08 08:43:40;;;;;;;5.22;3.03;;;;;;;2.14;97.67;101441.44;5042271;28;20076;-63
2021/01/08 08:46:07;;;;;;;4.97;3.05;;;;;;;2.02;97.79;101438.38;5041974;28;20072;-63
2021/01/08 08:48:33;;;;;;;5.13;3.17;;;;;;;2.09;97.53;101445.13;5038739;28;20049;-63
2021/01/08 08:50:59;;;;;;;7.75;2.97;;;;;;;2.00;97.92;101447.31;5041287;28;20387;-63
2021/01/08 08:53:25;;;;;;;4.80;3.20;;;;;;;2.01;98.51;101447.25;5032803;28;20437;-63
2021/01/08 08:55:51;;;;;;;7.18;3.70;;;;;;;2.01;98.54;101452.56;5040198;28;20053;-63
2021/01/08 08:58:17;;;;;;;5.35;3.20;;;;;;;2.16;98.25;101458.16;5043301;28;20077;-62
2021/01/08 09:00:44;;;;;;;4.72;3.20;;;;;;;2.08;98.35;101462.00;5040102;28;20104;-63
2021/01/08 09:03:21;;;;;;;6.65;2.75;;;;;;;2.04;98.01;101465.69;5042200;28;20828;-63
2021/01/08 09:05:49;;;;;;;5.90;3.08;;;;;;;2.01;98.42;101462.34;5043175;28;20490;-63
2021/01/08 09:08:20;;;;;;;4.93;2.90;;;;;;;2.02;98.20;101470.22;5041850;28;20071;-63
2021/01/08 09:10:51;;;;;;;5.00;3.00;;;;;;;2.08;98.45;101471.75;5043302;28;20056;-63
2021/01/08 09:13:30;;;;;;;4.45;3.10;;;;;;;2.01;98.49;101468.50;5037511;28;20063;-63
2021/01/08 09:16:03;;;;;;;4.27;2.70;;;;;;;1.99;98.13;101470.38;5038456;28;20045;-63
2021/01/08 09:18:39;;;;;;;4.30;2.83;;;;;;;1.96;97.96;101469.63;5038012;28;20074;-63
2021/01/08 09:21:11;;;;;;;7.45;2.97;;;;;;;1.98;98.55;101468.63;5037989;28;20049;-62
2021/01/08 09:23:41;;;;;;;5.18;3.08;;;;;;;1.98;98.19;101473.09;5040640;28;20077;-63
2021/01/08 09:26:08;;;;;;;5.40;3.20;;;;;;;1.98;98.15;101476.59;5040896;28;20064;-63
2021/01/08 09:28:42;;;;;;;4.72;3.25;;;;;;;1.88;98.93;101483.22;5042933;28;20406;-63
2021/01/08 09:31:08;;;;;;;5.18;3.20;;;;;;;1.98;98.68;101481.06;5040452;28;20046;-64
2021/01/08 09:33:35;;;;;;;6.78;3.90;;;;;;;2.12;98.00;101491.06;5040157;28;20041;-64
2021/01/08 09:36:01;;;;;;;6.80;3.78;;;;;;;2.00;98.45;101477.38;5038486;28;20095;-64
2021/01/08 09:38:29;;;;;;;5.53;3.67;;;;;;;2.11;99.01;101484.91;5037971;28;20103;-64
2021/01/08 09:40:55;;;;;;;8.38;3.95;;;;;;;2.21;98.87;101485.34;5041529;28;20155;-64
2021/01/08 09:43:23;;;;;;;7.75;3.88;;;;;;;2.25;97.99;101494.91;5039404;28;20059;-64
2021/01/08 09:46:00;;;;;;;6.38;3.63;;;;;;;2.37;97.82;101491.75;5041105;28;20425;-64
2021/01/08 09:48:26;;;;;;;6.85;3.45;;;;;;;2.49;97.74;101505.38;5042449;28;20122;-64
2021/01/08 09:51:01;;;;;;;5.80;3.60;;;;;;;2.47;98.00;101501.94;5039649;28;20132;-63
2021/01/08 09:53:27;;;;;;;5.78;3.35;;;;;;;2.50;97.77;101504.47;5041235;28;20057;-64
2021/01/08 09:55:53;;;;;;;5.57;3.25;;;;;;;2.56;97.29;101506.84;5041201;28;20451;-64
2021/01/08 09:58:19;;;;;;;4.50;2.63;;;;;;;2.53;97.45;101513.19;5039877;28;20402;-64
2021/01/08 10:00:50;;;;;;;3.97;2.58;;;;;;;2.50;97.28;101510.63;5041324;28;20064;-64
2021/01/08 10:03:20;;;;;;;4.50;2.78;;;;;;;2.56;96.93;101506.84;5038946;28;20053;-64
2021/01/08 10:05:46;;;;;;;3.45;2.35;;;;;;;2.43;97.35;101518.03;5040347;28;20083;-64
2021/01/08 10:08:20;;;;;;;4.28;2.22;;;;;;;2.53;96.55;101522.94;5040628;28;20050;-64
2021/01/08 10:10:46;;;;;;;3.30;2.30;;;;;;;2.45;96.67;101516.16;5040970;28;20175;-64
2021/01/08 10:13:18;;;;;;;5.07;2.13;;;;;;;2.56;96.57;101517.47;5040127;28;20048;-64
2021/01/08 10:15:47;;;;;;;4.05;2.50;;;;;;;2.45;96.54;101521.47;5039756;28;20053;-64
2021/01/08 10:18:15;;;;;;;3.15;2.20;;;;;;;2.50;96.52;101512.44;5041457;28;20059;-64
2021/01/08 10:20:48;;;;;;;3.90;2.50;;;;;;;2.60;96.01;101519.06;5040873;28;20082;-63
2021/01/08 10:23:16;;;;;;;4.80;3.50;;;;;;;2.80;96.12;101519.03;5036845;28;20045;-64
2021/01/08 10:25:43;;;;;;;4.60;2.10;;;;;;;2.82;95.70;101513.66;5038934;28;20060;-63
2021/01/08 10:28:12;;;;;;;2.88;1.98;;;;;;;2.68;95.76;101514.28;5037799;28;20056;-64
2021/01/08 10:30:39;;;;;;;4.65;2.17;;;;;;;2.74;95.96;101508.69;5027340;28;20068;-64
2021/01/08 10:33:05;;;;;;;4.70;2.25;;;;;;;2.85;95.78;101517.97;5037163;28;20079;-64
2021/01/08 10:38:42;;;;;;;2.63;2.15;;;;;;;2.96;95.43;101521.84;5033691;23;20084;-64
2021/01/08 10:41:09;;;;;;;3.47;1.88;;;;;;;3.08;94.70;101533.72;5019366;28;20050;-64
2021/01/08 10:43:35;;;;;;;5.03;2.20;;;;;;;3.14;94.99;101520.13;5018413;28;20573;-64
2021/01/08 10:46:02;;;;;;;3.88;2.15;;;;;;;2.98;94.50;101524.44;5019947;28;20054;-63
2021/01/08 10:48:30;;;;;;;2.60;2.03;;;;;;;3.08;94.35;101535.53;5019559;28;20064;-64
2021/01/08 10:50:56;;;;;;;2.90;1.90;;;;;;;2.94;93.56;101534.34;5017486;28;20057;-64
2021/01/08 10:53:22;;;;;;;3.67;2.13;;;;;;;2.97;93.08;101534.22;5018140;28;20060;-64
2021/01/08 10:55:48;;;;;;;3.92;2.17;;;;;;;3.00;94.15;101533.22;5017950;28;20046;-63
2021/01/08 10:58:16;;;;;;;3.50;1.90;;;;;;;2.92;94.02;101530.06;5017425;28;20061;-64
2021/01/08 11:00:43;;;;;;;3.30;1.80;;;;;;;2.99;94.01;101542.13;5019255;28;20156;-64
2021/01/08 11:03:09;;;;;;;4.35;2.10;;;;;;;3.06;93.25;101535.59;5019486;28;20058;-63
2021/01/08 11:05:38;;;;;;;2.90;1.75;;;;;;;3.09;93.34;101535.47;5018297;28;20057;-63
2021/01/08 11:08:04;;;;;;;4.82;2.15;;;;;;;3.05;94.48;101535.66;5019521;28;20402;-64
2021/01/08 11:10:30;;;;;;;4.05;2.30;;;;;;;2.92;94.05;101538.88;5018061;28;20367;-63
2021/01/08 11:12:56;;;;;;;2.80;2.10;;;;;;;2.91;94.37;101538.94;5016366;28;20056;-63
2021/01/08 11:15:23;;;;;;;2.65;1.85;;;;;;;2.98;94.69;101545.72;5016995;28;23009;-63
2021/01/08 11:17:49;;;;;;;3.67;1.80;;;;;;;2.83;93.84;101546.41;5016568;28;20099;-63
2021/01/08 11:20:15;;;;;;;2.85;2.30;;;;;;;2.96;94.08;101543.13;5020376;28;20046;-63
2021/01/08 11:22:41;;;;;;;2.15;1.70;;;;;;;3.00;93.85;101549.16;5020933;28;20057;-64
2021/01/08 11:25:08;;;;;;;2.67;2.03;;;;;;;2.77;93.75;101545.75;5019978;28;20415;-63
2021/01/08 11:27:34;;;;;;;3.70;2.17;;;;;;;2.69;93.10;101547.88;5019328;28;20494;-63
2021/01/08 11:30:00;;;;;;;3.00;2.20;;;;;;;2.69;93.26;101539.91;5013349;28;20675;-64
2021/01/08 11:32:27;;;;;;;4.07;2.15;;;;;;;2.71;93.66;101542.50;5018711;28;20614;-63
2021/01/08 11:34:53;;;;;;;3.38;2.33;;;;;;;2.93;93.50;101547.72;5018394;28;20057;-63
2021/01/08 11:37:19;;;;;;;3.50;2.55;;;;;;;2.79;93.28;101551.84;5022387;28;20057;-63
2021/01/08 11:39:46;;;;;;;3.28;2.25;;;;;;;2.89;93.60;101552.31;5021889;28;20470;-63
2021/01/08 11:42:12;;;;;;;4.18;2.50;;;;;;;2.90;93.05;101555.84;5020610;28;20053;-63
2021/01/08 11:44:38;;;;;;;3.20;2.40;;;;;;;2.79;93.56;101562.50;5020247;28;20457;-64
2021/01/08 11:47:04;;;;;;;3.38;2.15;;;;;;;2.66;92.57;101550.69;5020753;28;20169;-64